Time;durP1;ratioP1;P1;durP2;ratioP2;P2;SDS_P1;SDS_P2;PMS_P1;PMS_P2;Temp;Humidity;BMP_temperature;BMP_pressure;BME280_temperature;BME280_humidity;BME280_pressure;Samples;Min_cycle;Max_cycle;Signal;HPM_P1;HPM_P2
2022/03/31 00:00:38;;;;;;;2.80;1.80;;;19.20;42.40;;;;;;5054448;28;20264;-89
2022/03/31 00:03:07;;;;;;;2.87;2.00;;;19.20;42.50;;;;;;5053821;28;20233;-89
2022/03/31 00:05:33;;;;;;;2.17;1.70;;;19.10;42.50;;;;;;5053667;28;20168;-88
2022/03/31 00:08:03;;;;;;;2.27;1.80;;;19.00;42.50;;;;;;5052770;28;20178;-88
2022/03/31 00:10:32;;;;;;;2.10;1.60;;;19.00;42.60;;;;;;5051087;28;20217;-88
2022/03/31 00:12:59;;;;;;;3.17;1.70;;;19.00;42.70;;;;;;5052898;28;20167;-88
2022/03/31 00:15:27;;;;;;;2.17;1.60;;;18.90;42.70;;;;;;5053664;28;20169;-88
2022/03/31 00:17:54;;;;;;;2.10;1.53;;;18.90;42.70;;;;;;5053435;28;20175;-88
2022/03/31 00:20:19;;;;;;;3.03;1.87;;;18.90;42.70;;;;;;5053468;28;20181;-88
2022/03/31 00:22:46;;;;;;;2.93;1.63;;;18.80;42.80;;;;;;5053456;28;20477;-88
2022/03/31 00:25:13;;;;;;;2.43;1.67;;;18.80;42.80;;;;;;5052092;28;20182;-88
2022/03/31 00:27:39;;;;;;;2.37;1.80;;;18.80;42.80;;;;;;5052373;28;20175;-88
2022/03/31 00:30:08;;;;;;;1.93;1.63;;;18.80;42.80;;;;;;5053080;28;20277;-88
2022/03/31 00:32:35;;;;;;;2.60;1.70;;;18.70;42.90;;;;;;5052116;28;20194;-89
2022/03/31 00:35:01;;;;;;;2.23;1.60;;;18.70;43.00;;;;;;5053971;28;20554;-89
2022/03/31 00:37:27;;;;;;;3.10;1.70;;;18.60;43.00;;;;;;5054525;28;20165;-90
2022/03/31 00:39:54;;;;;;;2.00;1.50;;;18.60;43.10;;;;;;5054061;28;20556;-90
2022/03/31 00:42:21;;;;;;;2.53;1.80;;;18.60;43.10;;;;;;5053616;28;20236;-90
2022/03/31 00:44:46;;;;;;;2.30;1.60;;;18.60;43.10;;;;;;5053414;28;20183;-90
2022/03/31 00:47:12;;;;;;;2.20;1.80;;;18.60;43.10;;;;;;5052444;28;20191;-90
2022/03/31 00:49:38;;;;;;;3.03;1.70;;;18.50;43.10;;;;;;5052847;28;20602;-90
2022/03/31 00:52:05;;;;;;;2.00;1.70;;;18.50;43.10;;;;;;5052069;28;20241;-90
2022/03/31 00:54:32;;;;;;;1.97;1.50;;;18.50;43.20;;;;;;5052356;28;20168;-90
2022/03/31 00:57:00;;;;;;;2.07;1.70;;;18.40;43.20;;;;;;5052452;28;20171;-90
2022/03/31 00:59:26;;;;;;;2.70;1.50;;;18.30;43.20;;;;;;5052845;28;20175;-90
2022/03/31 01:01:53;;;;;;;2.13;1.50;;;18.40;43.40;;;;;;5053776;28;20261;-90
2022/03/31 01:04:19;;;;;;;3.13;1.80;;;18.30;43.30;;;;;;5053609;28;20301;-90
2022/03/31 01:06:45;;;;;;;2.93;1.60;;;18.30;43.40;;;;;;5053300;28;20180;-90
2022/03/31 01:09:14;;;;;;;3.10;1.60;;;18.30;43.30;;;;;;5053607;28;20312;-89
2022/03/31 01:11:41;;;;;;;4.80;1.83;;;18.30;43.30;;;;;;5052709;28;20429;-89
2022/03/31 01:14:07;;;;;;;2.03;1.47;;;18.30;43.30;;;;;;5052183;28;20178;-89
2022/03/31 01:16:35;;;;;;;2.67;1.73;;;18.30;43.30;;;;;;5051140;28;20175;-89
2022/03/31 01:19:16;;;;;;;2.80;1.57;;;18.20;43.40;;;;;;5052781;28;20537;-89
2022/03/31 01:21:46;;;;;;;2.87;1.63;;;18.20;43.40;;;;;;5056534;28;20246;-88
2022/03/31 01:24:17;;;;;;;3.67;1.60;;;18.20;43.40;;;;;;5059632;28;20193;-89
2022/03/31 01:26:43;;;;;;;2.77;1.80;;;18.20;43.40;;;;;;5058915;28;20177;-89
2022/03/31 01:29:09;;;;;;;2.07;1.50;;;18.10;43.40;;;;;;5056218;28;20195;-89
2022/03/31 01:31:38;;;;;;;2.40;1.77;;;18.10;43.40;;;;;;5057485;28;20167;-89
2022/03/31 01:34:05;;;;;;;2.13;1.60;;;18.10;43.50;;;;;;5058793;28;20249;-89
2022/03/31 01:36:31;;;;;;;2.00;1.80;;;17.90;43.50;;;;;;5057876;28;20185;-88
2022/03/31 01:38:57;;;;;;;1.80;1.50;;;17.90;43.70;;;;;;5058095;28;20183;-89
2022/03/31 01:41:23;;;;;;;2.33;1.70;;;17.90;43.70;;;;;;5058826;28;20228;-89
2022/03/31 01:43:49;;;;;;;2.80;1.70;;;17.90;43.80;;;;;;5058785;28;20287;-88
2022/03/31 01:46:15;;;;;;;1.97;1.50;;;17.80;43.80;;;;;;5059260;28;20222;-88
2022/03/31 01:48:41;;;;;;;2.40;1.67;;;17.80;43.80;;;;;;5060275;28;20206;-88
2022/03/31 01:51:07;;;;;;;2.17;1.53;;;17.80;43.90;;;;;;5059876;28;20222;-89
2022/03/31 01:53:34;;;;;;;2.27;1.57;;;17.70;43.90;;;;;;5060128;28;20179;-89
2022/03/31 01:56:00;;;;;;;2.17;1.57;;;17.70;44.00;;;;;;5059711;28;20170;-89
2022/03/31 01:58:26;;;;;;;3.00;1.60;;;17.70;44.00;;;;;;5060102;28;20319;-89
2022/03/31 02:00:52;;;;;;;1.90;1.50;;;17.70;43.90;;;;;;5059665;28;20455;-88
2022/03/31 02:03:18;;;;;;;1.90;1.40;;;17.70;43.90;;;;;;5059855;28;20554;-88
2022/03/31 02:05:44;;;;;;;1.80;1.50;;;17.70;44.00;;;;;;5059406;28;20180;-88
2022/03/31 02:08:10;;;;;;;1.60;1.33;;;17.70;44.00;;;;;;5060012;28;20289;-88
2022/03/31 02:10:35;;;;;;;1.83;1.57;;;17.60;44.00;;;;;;5059691;28;20203;-88
2022/03/31 02:13:01;;;;;;;1.90;1.37;;;17.60;44.00;;;;;;5060044;28;20572;-88
2022/03/31 02:15:29;;;;;;;2.50;1.50;;;17.60;44.10;;;;;;5059788;28;20177;-89
2022/03/31 02:17:55;;;;;;;1.50;1.40;;;17.60;44.00;;;;;;5059201;28;20435;-89
2022/03/31 02:20:27;;;;;;;1.53;1.40;;;17.60;44.10;;;;;;5058597;28;20321;-89
2022/03/31 02:22:52;;;;;;;2.67;1.70;;;17.60;44.10;;;;;;5058876;28;20441;-89
2022/03/31 02:25:19;;;;;;;2.00;1.40;;;17.60;44.20;;;;;;5058873;28;20649;-89
2022/03/31 02:27:44;;;;;;;1.57;1.40;;;17.50;44.10;;;;;;5057854;28;20183;-89
2022/03/31 02:30:10;;;;;;;2.33;1.70;;;17.50;44.10;;;;;;5057509;28;20476;-89
2022/03/31 02:32:37;;;;;;;1.77;1.30;;;17.50;44.20;;;;;;5056477;28;20189;-89
2022/03/31 02:35:05;;;;;;;1.67;1.50;;;17.50;44.20;;;;;;5055011;28;20180;-89
2022/03/31 02:37:31;;;;;;;1.70;1.50;;;17.50;44.20;;;;;;5054054;28;20172;-89
2022/03/31 02:39:57;;;;;;;2.20;1.73;;;17.50;44.20;;;;;;5054406;28;20593;-89
2022/03/31 02:42:24;;;;;;;1.43;1.33;;;17.50;44.20;;;;;;5054118;28;20175;-89
2022/03/31 02:44:49;;;;;;;2.23;1.43;;;17.40;44.20;;;;;;5054467;28;20491;-89
2022/03/31 02:47:15;;;;;;;1.57;1.40;;;17.40;44.20;;;;;;5053911;28;20504;-89
2022/03/31 02:49:41;;;;;;;2.50;1.43;;;17.40;44.30;;;;;;5054988;28;20211;-88
2022/03/31 02:52:07;;;;;;;2.13;1.60;;;17.50;44.30;;;;;;5055045;28;20178;-88
2022/03/31 02:57:18;;;;;;;1.37;1.27;;;17.40;44.30;;;;;;5053784;28;20177;-89
2022/03/31 02:59:45;;;;;;;1.70;1.30;;;17.40;44.30;;;;;;5055211;28;20459;-89
2022/03/31 03:02:10;;;;;;;2.07;1.30;;;17.50;44.40;;;;;;5053623;28;20179;-89
2022/03/31 03:04:36;;;;;;;1.63;1.37;;;17.50;44.30;;;;;;5054155;28;20275;-89
2022/03/31 03:07:02;;;;;;;2.47;1.50;;;17.50;44.30;;;;;;5054067;28;20173;-89
2022/03/31 03:09:29;;;;;;;1.47;1.37;;;17.40;44.30;;;;;;5054720;28;20285;-89
2022/03/31 03:11:54;;;;;;;1.90;1.43;;;17.40;44.30;;;;;;5054912;28;20186;-89
2022/03/31 03:14:22;;;;;;;1.37;1.27;;;17.40;44.30;;;;;;5053871;28;20166;-89
2022/03/31 03:16:48;;;;;;;2.63;1.47;;;17.40;44.30;;;;;;5054495;28;20170;-89
2022/03/31 03:19:14;;;;;;;1.43;1.33;;;17.40;44.30;;;;;;5054689;28;20530;-89
2022/03/31 03:21:40;;;;;;;1.53;1.27;;;17.40;44.30;;;;;;5055088;28;20178;-89
2022/03/31 03:24:06;;;;;;;1.73;1.43;;;17.40;44.40;;;;;;5055142;28;20176;-89
2022/03/31 03:26:32;;;;;;;2.30;1.30;;;17.40;44.30;;;;;;5055700;28;20234;-89
2022/03/31 03:28:58;;;;;;;1.80;1.43;;;17.50;44.40;;;;;;5054276;28;20213;-89
2022/03/31 03:31:24;;;;;;;1.57;1.40;;;17.50;44.80;;;;;;5054534;28;20592;-89
2022/03/31 03:33:49;;;;;;;1.50;1.40;;;17.40;44.40;;;;;;5053968;28;20204;-89
2022/03/31 03:36:18;;;;;;;1.47;1.30;;;17.40;44.50;;;;;;5054359;28;20175;-89
2022/03/31 03:38:44;;;;;;;1.47;1.20;;;17.30;44.50;;;;;;5054135;28;20468;-88
2022/03/31 03:41:11;;;;;;;1.30;1.20;;;17.30;44.60;;;;;;5054188;28;20178;-88
2022/03/31 03:43:39;;;;;;;1.70;1.43;;;17.20;44.60;;;;;;5053636;28;20183;-89
2022/03/31 03:46:04;;;;;;;1.57;1.20;;;17.20;44.70;;;;;;5053102;28;20478;-89
2022/03/31 03:48:30;;;;;;;2.30;1.50;;;17.20;44.70;;;;;;5053782;28;20217;-89
2022/03/31 03:50:56;;;;;;;1.77;1.40;;;17.10;44.70;;;;;;5054334;28;20209;-89
2022/03/31 03:53:22;;;;;;;1.37;1.17;;;17.10;44.80;;;;;;5054676;28;20180;-89
2022/03/31 03:55:48;;;;;;;2.67;1.40;;;17.10;44.80;;;;;;5054159;28;20491;-89
2022/03/31 03:58:13;;;;;;;2.47;1.20;;;17.10;44.90;;;;;;5053926;28;20551;-90
2022/03/31 04:00:39;;;;;;;1.30;1.20;;;18.90;44.00;;;;;;5053405;28;20265;-90
2022/03/31 04:03:05;;;;;;;1.30;1.20;;;21.70;41.10;;;;;;5052700;28;20233;-90
2022/03/31 04:05:31;;;;;;;1.90;1.40;;;22.10;39.70;;;;;;5053056;28;20288;-90
2022/03/31 04:07:57;;;;;;;1.50;1.40;;;22.20;39.50;;;;;;5052928;28;20345;-90
2022/03/31 04:10:23;;;;;;;1.63;1.47;;;22.30;39.30;;;;;;5052264;28;20204;-89
2022/03/31 04:12:49;;;;;;;1.20;1.10;;;22.60;39.20;;;;;;5053856;28;20440;-90
2022/03/31 04:15:15;;;;;;;2.60;1.30;;;22.80;39.00;;;;;;5053204;28;20634;-90
2022/03/31 04:17:44;;;;;;;1.47;1.20;;;23.10;38.80;;;;;;5052475;28;20275;-90
2022/03/31 04:20:13;;;;;;;1.30;1.20;;;23.30;38.60;;;;;;5053573;28;20176;-90
2022/03/31 04:22:40;;;;;;;1.23;1.13;;;23.20;38.70;;;;;;5053073;28;20565;-90
2022/03/31 04:25:08;;;;;;;1.30;1.20;;;23.30;38.70;;;;;;5052456;28;20179;-89
2022/03/31 04:27:35;;;;;;;1.50;1.40;;;23.30;38.60;;;;;;5053210;28;20519;-89
2022/03/31 04:30:06;;;;;;;1.30;1.20;;;23.30;38.50;;;;;;5052093;28;20214;-89
2022/03/31 04:32:32;;;;;;;1.33;1.23;;;23.30;38.60;;;;;;5052474;28;20184;-90
2022/03/31 04:34:58;;;;;;;1.23;1.13;;;23.30;38.50;;;;;;5053111;28;20182;-89
2022/03/31 04:37:24;;;;;;;1.53;1.27;;;23.20;38.50;;;;;;5051882;28;20425;-90
2022/03/31 04:39:50;;;;;;;1.37;1.27;;;23.20;38.70;;;;;;5052322;28;20183;-90
2022/03/31 04:42:16;;;;;;;1.40;1.30;;;23.00;38.80;;;;;;5050354;28;20460;-89
2022/03/31 04:44:41;;;;;;;1.57;1.30;;;22.80;39.00;;;;;;5051124;28;20269;-89
2022/03/31 04:47:07;;;;;;;1.33;1.20;;;22.60;39.20;;;;;;5051727;28;20826;-89
2022/03/31 04:49:34;;;;;;;1.30;1.20;;;22.40;39.30;;;;;;5050560;28;20470;-89
2022/03/31 04:52:00;;;;;;;1.60;1.20;;;22.20;39.50;;;;;;5049630;28;20172;-90
2022/03/31 04:54:26;;;;;;;1.30;1.10;;;22.00;39.70;;;;;;5050696;28;20529;-89
2022/03/31 04:56:52;;;;;;;1.57;1.47;;;21.80;39.90;;;;;;5049869;28;20265;-89
2022/03/31 04:59:18;;;;;;;1.40;1.20;;;21.60;40.10;;;;;;5050115;28;20175;-89
2022/03/31 05:01:45;;;;;;;1.80;1.40;;;21.40;40.30;;;;;;5049897;28;20174;-89
2022/03/31 05:04:12;;;;;;;1.30;1.20;;;21.20;40.50;;;;;;5049373;28;20173;-89
2022/03/31 05:06:38;;;;;;;1.23;1.10;;;21.00;40.90;;;;;;5049645;28;20169;-89
2022/03/31 05:09:04;;;;;;;1.33;1.23;;;20.70;41.20;;;;;;5049909;28;20263;-89
2022/03/31 05:11:30;;;;;;;1.33;1.23;;;20.50;41.50;;;;;;5049963;28;20156;-89
2022/03/31 05:13:55;;;;;;;1.53;1.33;;;20.30;41.90;;;;;;5050035;28;20177;-89
2022/03/31 05:16:21;;;;;;;1.40;1.20;;;20.00;42.30;;;;;;5050191;28;20172;-90
2022/03/31 05:18:47;;;;;;;1.27;1.17;;;19.80;42.60;;;;;;5048945;28;20197;-90
2022/03/31 05:21:14;;;;;;;2.57;1.40;;;19.60;42.90;;;;;;5047217;28;20392;-90
2022/03/31 05:23:40;;;;;;;1.50;1.23;;;19.40;43.20;;;;;;5047989;28;20168;-89
2022/03/31 05:26:06;;;;;;;1.40;1.20;;;19.20;43.40;;;;;;5047630;28;20506;-89
2022/03/31 05:28:31;;;;;;;1.43;1.30;;;19.10;43.60;;;;;;5048370;28;20215;-90
2022/03/31 05:30:57;;;;;;;1.83;1.40;;;19.00;43.80;;;;;;5047949;28;20298;-89
2022/03/31 05:33:23;;;;;;;1.77;1.23;;;18.80;43.90;;;;;;5046292;28;20180;-89
2022/03/31 05:35:49;;;;;;;3.50;1.70;;;18.70;44.10;;;;;;5048087;28;20461;-90
2022/03/31 05:38:15;;;;;;;4.33;1.40;;;18.60;44.30;;;;;;5046849;28;20183;-89
2022/03/31 05:40:41;;;;;;;2.73;1.60;;;18.50;44.50;;;;;;5045842;28;20180;-90
2022/03/31 05:43:07;;;;;;;2.97;1.83;;;18.40;44.70;;;;;;5046587;28;20181;-89
2022/03/31 05:45:33;;;;;;;1.60;1.33;;;18.30;44.90;;;;;;5047608;28;20172;-89
2022/03/31 05:47:58;;;;;;;3.13;1.60;;;18.30;45.00;;;;;;5047389;28;20420;-89
2022/03/31 05:50:25;;;;;;;5.40;1.90;;;18.30;45.00;;;;;;5046668;28;20602;-90
2022/03/31 05:52:50;;;;;;;2.07;1.33;;;18.40;45.00;;;;;;5048328;28;20164;-89
2022/03/31 05:55:18;;;;;;;5.13;2.00;;;18.70;44.90;;;;;;5046016;28;20171;-89
2022/03/31 05:57:44;;;;;;;3.93;1.90;;;19.00;44.60;;;;;;5046672;28;20328;-89
2022/03/31 06:00:14;;;;;;;2.87;1.70;;;19.30;44.30;;;;;;5047880;28;20563;-89
2022/03/31 06:02:41;;;;;;;5.97;2.00;;;19.60;44.00;;;;;;5045766;28;20183;-90
2022/03/31 06:05:07;;;;;;;4.17;1.97;;;19.90;43.60;;;;;;5047637;28;20808;-90
2022/03/31 06:07:33;;;;;;;3.20;1.80;;;20.20;43.30;;;;;;5049506;28;20178;-90
2022/03/31 06:09:59;;;;;;;4.77;2.00;;;20.40;43.40;;;;;;5051146;28;20203;-90
2022/03/31 06:12:25;;;;;;;4.20;2.23;;;20.70;42.80;;;;;;5050948;28;20467;-90
2022/03/31 06:14:51;;;;;;;3.80;1.90;;;20.90;42.50;;;;;;5051499;28;20176;-90
2022/03/31 06:17:17;;;;;;;2.57;1.60;;;21.30;42.20;;;;;;5051118;28;20173;-90
2022/03/31 06:19:43;;;;;;;4.83;2.10;;;21.50;41.90;;;;;;5050437;28;20183;-90
2022/03/31 06:22:09;;;;;;;6.17;2.00;;;21.50;41.80;;;;;;5051174;28;20175;-90
2022/03/31 06:24:35;;;;;;;3.23;2.00;;;21.40;41.80;;;;;;5050101;28;20190;-90
2022/03/31 06:27:02;;;;;;;3.50;2.33;;;21.50;41.80;;;;;;5050195;28;20175;-90
2022/03/31 06:29:27;;;;;;;4.03;1.90;;;21.50;41.80;;;;;;5051377;28;20498;-91
2022/03/31 06:31:54;;;;;;;2.73;2.00;;;21.60;41.80;;;;;;5050751;28;20356;-90
2022/03/31 06:34:21;;;;;;;5.43;2.40;;;21.50;41.80;;;;;;5051114;28;20174;-90
2022/03/31 06:36:47;;;;;;;3.17;2.10;;;21.40;41.90;;;;;;5050506;28;20183;-90
2022/03/31 06:39:13;;;;;;;6.90;2.47;;;21.30;42.00;;;;;;5050607;28;20174;-90
2022/03/31 06:41:40;;;;;;;5.00;2.60;;;21.10;42.20;;;;;;5049989;28;20176;-90
2022/03/31 06:44:08;;;;;;;4.70;2.10;;;20.90;42.40;;;;;;5051688;28;20216;-90
2022/03/31 06:46:34;;;;;;;3.43;2.43;;;20.70;42.60;;;;;;5050063;28;20180;-90
2022/03/31 06:49:01;;;;;;;4.13;2.27;;;20.60;42.80;;;;;;5051236;28;20180;-90
2022/03/31 06:51:27;;;;;;;3.53;2.40;;;20.40;43.00;;;;;;5051400;28;20172;-90
2022/03/31 06:53:54;;;;;;;4.07;2.20;;;20.30;43.10;;;;;;5049721;28;20281;-90
2022/03/31 06:56:20;;;;;;;3.70;2.50;;;20.20;43.20;;;;;;5048583;28;20205;-90
2022/03/31 06:58:46;;;;;;;4.03;2.40;;;20.10;43.30;;;;;;5049881;28;20585;-90
2022/03/31 07:01:12;;;;;;;5.47;2.60;;;20.10;43.30;;;;;;5049607;28;20340;-90
2022/03/31 07:03:38;;;;;;;3.90;2.30;;;20.10;43.40;;;;;;5050778;28;20184;-90
2022/03/31 07:06:06;;;;;;;5.23;2.30;;;20.10;43.40;;;;;;5050392;28;20171;-89
2022/03/31 07:08:34;;;;;;;7.63;2.50;;;20.00;43.40;;;;;;5048052;28;20237;-90
2022/03/31 07:11:01;;;;;;;2.97;2.27;;;20.00;43.50;;;;;;5049188;28;20555;-90
2022/03/31 07:13:26;;;;;;;5.43;2.50;;;20.00;43.40;;;;;;5048104;28;20513;-90
2022/03/31 07:15:52;;;;;;;4.10;2.40;;;20.00;43.50;;;;;;5048450;28;20568;-90
2022/03/31 07:18:18;;;;;;;3.60;2.00;;;19.90;43.50;;;;;;5049536;28;20197;-90
2022/03/31 07:20:44;;;;;;;6.27;2.57;;;19.80;43.60;;;;;;5048012;28;20415;-90
2022/03/31 07:23:10;;;;;;;6.13;2.50;;;19.60;43.80;;;;;;5049359;28;20256;-90
2022/03/31 07:25:35;;;;;;;4.10;2.23;;;19.40;44.00;;;;;;5047489;28;20176;-90
2022/03/31 07:28:02;;;;;;;6.73;2.80;;;19.20;44.10;;;;;;5049947;28;20274;-90
2022/03/31 07:30:28;;;;;;;2.77;2.20;;;19.10;44.30;;;;;;5049204;28;20452;-90
2022/03/31 07:32:59;;;;;;;5.33;2.27;;;18.90;44.40;;;;;;5048143;28;20180;-90
2022/03/31 07:35:29;;;;;;;2.83;1.90;;;18.80;44.60;;;;;;5048840;28;20164;-90
2022/03/31 07:37:56;;;;;;;3.60;2.40;;;18.80;44.70;;;;;;5050142;28;20568;-90
2022/03/31 07:40:23;;;;;;;3.73;2.50;;;18.90;44.70;;;;;;5048842;28;20169;-90
2022/03/31 07:42:49;;;;;;;4.60;2.40;;;19.20;44.60;;;;;;5048833;28;20265;-90
2022/03/31 07:45:16;;;;;;;4.73;2.27;;;19.60;44.20;;;;;;5050392;28;20176;-90
2022/03/31 07:47:43;;;;;;;3.13;2.20;;;20.30;43.40;;;;;;5049457;28;20268;-90
2022/03/31 07:50:10;;;;;;;3.83;2.27;;;21.20;42.40;;;;;;5053428;28;20228;-90
2022/03/31 07:52:37;;;;;;;2.67;2.10;;;21.90;41.60;;;;;;5049523;28;20176;-90
2022/03/31 07:55:04;;;;;;;3.80;2.50;;;22.40;40.90;;;;;;5048578;28;20256;-90
2022/03/31 07:57:30;;;;;;;2.90;2.07;;;22.60;40.50;;;;;;5049264;28;20414;-90
2022/03/31 07:59:56;;;;;;;2.83;2.00;;;22.70;40.40;;;;;;5048688;28;20171;-90
2022/03/31 08:02:24;;;;;;;3.93;2.40;;;22.60;40.50;;;;;;5048283;28;20182;-90
2022/03/31 08:04:51;;;;;;;4.10;2.23;;;22.60;40.50;;;;;;5048865;28;20275;-90
2022/03/31 08:07:16;;;;;;;4.27;2.33;;;22.50;40.60;;;;;;5048415;28;20168;-90
2022/03/31 08:09:42;;;;;;;2.83;2.20;;;22.40;40.60;;;;;;5047675;28;20549;-90
2022/03/31 08:12:08;;;;;;;4.80;2.40;;;22.30;40.70;;;;;;5047788;28;21029;-90
2022/03/31 08:14:34;;;;;;;3.63;2.30;;;22.10;40.90;;;;;;5048583;28;20210;-90
2022/03/31 08:17:00;;;;;;;3.77;2.20;;;21.90;41.10;;;;;;5047726;28;20210;-89
2022/03/31 08:19:29;;;;;;;2.83;2.13;;;21.70;41.40;;;;;;5047791;28;20207;-89
2022/03/31 08:21:56;;;;;;;3.30;2.10;;;21.50;41.60;;;;;;5048745;28;20178;-90
2022/03/31 08:24:22;;;;;;;3.23;2.30;;;21.30;41.80;;;;;;5049480;28;20519;-90
2022/03/31 08:26:50;;;;;;;4.63;2.13;;;21.10;42.00;;;;;;5047730;28;20177;-90
2022/03/31 08:29:16;;;;;;;3.13;2.33;;;20.80;42.30;;;;;;5048567;28;20208;-90
2022/03/31 08:31:42;;;;;;;2.23;2.03;;;20.70;42.50;;;;;;5047857;28;20172;-90
2022/03/31 08:34:09;;;;;;;3.13;2.40;;;20.40;42.70;;;;;;5047324;28;20184;-91
2022/03/31 08:36:35;;;;;;;3.47;2.30;;;20.30;42.90;;;;;;5048000;28;20177;-90
2022/03/31 08:39:03;;;;;;;3.70;2.20;;;20.20;43.20;;;;;;5047346;28;20222;-90
2022/03/31 08:41:29;;;;;;;2.40;2.20;;;20.00;43.30;;;;;;5046931;28;20172;-90
2022/03/31 08:43:56;;;;;;;2.93;2.30;;;19.80;43.50;;;;;;5047717;28;20179;-91
2022/03/31 08:46:23;;;;;;;4.37;2.20;;;19.60;43.70;;;;;;5047502;28;20193;-90
2022/03/31 08:48:49;;;;;;;3.23;2.20;;;19.40;43.90;;;;;;5048012;28;20176;-90
2022/03/31 08:51:15;;;;;;;2.97;2.23;;;19.40;44.10;;;;;;5046508;28;20206;-90
2022/03/31 08:53:41;;;;;;;2.03;1.80;;;19.20;44.20;;;;;;5047116;28;20172;-90
2022/03/31 08:56:10;;;;;;;2.73;2.13;;;19.00;44.30;;;;;;5047952;28;20173;-90
2022/03/31 08:58:36;;;;;;;2.87;2.37;;;18.90;44.50;;;;;;5047606;28;20176;-90
2022/03/31 09:01:02;;;;;;;2.60;2.00;;;18.80;44.60;;;;;;5048267;28;20207;-90
2022/03/31 09:03:35;;;;;;;2.87;2.30;;;18.80;44.80;;;;;;5049804;28;20203;-90
2022/03/31 09:06:01;;;;;;;2.97;2.10;;;18.70;44.90;;;;;;5053673;28;20172;-90
2022/03/31 09:08:32;;;;;;;3.27;2.10;;;18.70;44.90;;;;;;5053747;28;20183;-90
2022/03/31 09:11:00;;;;;;;3.03;2.20;;;18.80;45.00;;;;;;5053649;28;20219;-90
2022/03/31 09:13:30;;;;;;;2.90;2.10;;;18.90;44.90;;;;;;5053955;28;20176;-90
2022/03/31 09:16:02;;;;;;;4.77;2.27;;;19.20;44.60;;;;;;5053075;28;20257;-90
2022/03/31 09:18:31;;;;;;;2.53;2.20;;;19.80;44.10;;;;;;5052827;28;20169;-90
2022/03/31 09:20:59;;;;;;;3.57;2.20;;;20.40;43.30;;;;;;5053476;28;20706;-90
2022/03/31 09:23:31;;;;;;;2.30;2.10;;;21.10;42.60;;;;;;5052453;28;20172;-90
2022/03/31 09:26:12;;;;;;;3.80;2.30;;;21.50;41.90;;;;;;5053093;28;20174;-90
2022/03/31 09:28:39;;;;;;;2.83;2.30;;;22.10;41.40;;;;;;5053120;28;20172;-90
2022/03/31 09:31:08;;;;;;;2.57;2.30;;;22.60;40.80;;;;;;5051689;28;20276;-90
2022/03/31 09:33:37;;;;;;;3.43;2.17;;;22.60;40.50;;;;;;5047481;28;20628;-89
2022/03/31 09:36:13;;;;;;;3.43;2.30;;;22.60;40.60;;;;;;5046980;28;20779;-89
2022/03/31 09:38:40;;;;;;;3.20;2.40;;;22.60;40.60;;;;;;5047722;28;20174;-89
2022/03/31 09:41:21;;;;;;;2.27;1.73;;;22.40;40.70;;;;;;5048499;28;20165;-89
2022/03/31 09:43:48;;;;;;;2.63;2.30;;;22.20;40.90;;;;;;5049524;28;20174;-90
2022/03/31 09:46:25;;;;;;;2.90;2.23;;;22.10;41.10;;;;;;5050308;28;20243;-89
2022/03/31 09:48:52;;;;;;;3.23;2.23;;;21.90;41.40;;;;;;5049743;28;20539;-89
2022/03/31 09:51:20;;;;;;;3.00;2.30;;;21.60;41.60;;;;;;5048528;28;20493;-89
2022/03/31 09:53:48;;;;;;;4.20;2.27;;;21.50;41.80;;;;;;5049402;28;20213;-89
2022/03/31 09:56:21;;;;;;;2.63;2.30;;;21.30;42.00;;;;;;5050593;28;20162;-89
2022/03/31 09:58:48;;;;;;;3.30;2.30;;;21.10;42.20;;;;;;5050183;28;20179;-90
2022/03/31 10:01:18;;;;;;;3.07;2.10;;;20.80;42.50;;;;;;5050349;28;20173;-89
2022/03/31 10:03:44;;;;;;;2.40;2.20;;;20.70;42.70;;;;;;5049088;28;20365;-89
2022/03/31 10:06:12;;;;;;;3.70;2.20;;;20.50;42.90;;;;;;5049700;28;20174;-89
2022/03/31 10:08:42;;;;;;;2.80;2.27;;;20.40;43.10;;;;;;5049638;28;20200;-89
2022/03/31 10:11:10;;;;;;;3.03;2.47;;;20.20;43.30;;;;;;5048942;28;20440;-89
2022/03/31 10:14:06;;;;;;;2.30;2.03;;;20.10;43.50;;;;;;5047633;28;20471;-89
2022/03/31 10:16:44;;;;;;;3.77;2.37;;;19.90;43.60;;;;;;5050058;28;20179;-89
2022/03/31 10:19:10;;;;;;;2.70;2.10;;;19.80;43.80;;;;;;5047988;28;20508;-89
2022/03/31 10:21:36;;;;;;;3.47;2.40;;;19.70;44.00;;;;;;5048656;28;20177;-90
2022/03/31 10:26:58;;;;;;;3.50;2.40;;;19.30;44.40;;;;;;5048951;28;20172;-90
2022/03/31 10:29:35;;;;;;;3.03;2.00;;;19.30;44.50;;;;;;5049163;28;20798;-89
2022/03/31 10:32:03;;;;;;;2.53;2.33;;;19.20;44.60;;;;;;5049399;28;20218;-89
2022/03/31 10:34:34;;;;;;;3.37;2.20;;;19.10;44.70;;;;;;5048610;28;20245;-89
2022/03/31 10:37:06;;;;;;;3.93;2.40;;;19.00;44.80;;;;;;5050066;28;20183;-89
2022/03/31 10:39:32;;;;;;;4.03;2.40;;;18.90;44.90;;;;;;5050428;28;20173;-89
2022/03/31 10:42:07;;;;;;;3.17;2.30;;;18.90;45.00;;;;;;5049585;28;20471;-89
2022/03/31 10:44:34;;;;;;;2.50;2.07;;;18.90;45.40;;;;;;5048231;28;20176;-90
2022/03/31 10:47:06;;;;;;;4.00;2.40;;;19.00;45.00;;;;;;5048260;28;20454;-90
2022/03/31 10:49:34;;;;;;;3.93;2.37;;;19.20;44.70;;;;;;5047554;28;20250;-90
2022/03/31 10:52:17;;;;;;;3.77;2.20;;;19.70;44.40;;;;;;5049858;28;20527;-89
2022/03/31 10:54:43;;;;;;;3.70;1.93;;;20.20;43.80;;;;;;5047543;28;20179;-89
2022/03/31 10:57:17;;;;;;;3.30;2.23;;;20.30;43.50;;;;;;5048700;28;20251;-90
2022/03/31 10:59:50;;;;;;;3.47;2.10;;;20.20;43.40;;;;;;5047460;28;20168;-90
2022/03/31 11:02:22;;;;;;;2.80;2.17;;;20.10;43.50;;;;;;5046080;28;20191;-89
2022/03/31 11:04:59;;;;;;;2.87;2.33;;;19.90;43.80;;;;;;5044030;28;20177;-89
2022/03/31 11:07:27;;;;;;;2.57;2.03;;;19.70;43.90;;;;;;5046189;28;20234;-89
2022/03/31 11:10:10;;;;;;;3.83;2.13;;;19.60;44.10;;;;;;5047415;28;20495;-89
2022/03/31 11:12:37;;;;;;;2.67;2.23;;;19.70;44.10;;;;;;5050315;28;20182;-89
2022/03/31 11:15:08;;;;;;;3.77;2.20;;;19.80;43.80;;;;;;5048055;28;20180;-89
2022/03/31 11:17:44;;;;;;;3.13;2.13;;;20.20;43.70;;;;;;5059140;28;20172;-89
2022/03/31 11:20:20;;;;;;;4.27;2.43;;;20.60;43.20;;;;;;5046149;28;20279;-89
2022/03/31 11:22:53;;;;;;;2.33;2.13;;;21.10;42.70;;;;;;5047553;28;20608;-89
2022/03/31 11:25:19;;;;;;;3.43;2.50;;;21.60;42.20;;;;;;5046901;28;20282;-89
2022/03/31 11:27:49;;;;;;;3.77;2.40;;;22.10;41.60;;;;;;5046559;28;20182;-89
2022/03/31 11:30:20;;;;;;;3.43;2.40;;;22.30;41.30;;;;;;5044424;28;20536;-89
2022/03/31 11:32:48;;;;;;;4.23;2.50;;;22.40;41.10;;;;;;5044995;28;20192;-89
2022/03/31 11:35:21;;;;;;;3.33;2.60;;;22.50;40.80;;;;;;5045913;28;20504;-89
2022/03/31 11:37:48;;;;;;;2.83;2.43;;;22.70;40.70;;;;;;5044879;28;20166;-89
2022/03/31 11:40:27;;;;;;;3.60;2.60;;;22.70;40.70;;;;;;5046569;28;20204;-89
2022/03/31 11:42:55;;;;;;;3.73;2.40;;;22.50;40.90;;;;;;5045877;28;20560;-90
2022/03/31 11:45:43;;;;;;;4.00;2.43;;;22.30;41.00;;;;;;5047300;28;20528;-90
2022/03/31 11:48:13;;;;;;;2.87;2.40;;;22.10;41.20;;;;;;5045989;28;20178;-90
2022/03/31 11:50:58;;;;;;;3.47;2.73;;;21.80;41.60;;;;;;5046727;28;20291;-90
2022/03/31 11:53:27;;;;;;;3.77;2.80;;;21.60;41.80;;;;;;5047527;28;20176;-90
2022/03/31 11:56:05;;;;;;;4.43;2.60;;;21.30;42.00;;;;;;5045797;28;20208;-90
2022/03/31 11:58:48;;;;;;;2.77;2.50;;;21.10;42.30;;;;;;5045596;28;20256;-90
2022/03/31 12:01:30;;;;;;;3.30;2.97;;;20.90;42.60;;;;;;5046679;28;20550;-89
2022/03/31 12:03:56;;;;;;;3.60;2.67;;;20.70;42.90;;;;;;5047221;28;20547;-90
2022/03/31 12:06:22;;;;;;;2.70;2.40;;;20.50;43.50;;;;;;5045498;28;20173;-90
2022/03/31 12:08:48;;;;;;;4.87;2.87;;;20.30;43.30;;;;;;5044965;28;20190;-90
2022/03/31 12:11:15;;;;;;;3.27;2.43;;;20.20;43.40;;;;;;5044491;28;20211;-90
2022/03/31 12:13:57;;;;;;;2.90;2.40;;;20.00;43.60;;;;;;5046134;28;20177;-90
2022/03/31 12:16:25;;;;;;;4.27;2.90;;;19.90;43.80;;;;;;5046371;28;20266;-91
2022/03/31 12:18:59;;;;;;;2.73;2.37;;;19.70;44.00;;;;;;5047584;28;20276;-91
2022/03/31 12:21:28;;;;;;;3.63;2.67;;;19.60;44.20;;;;;;5048144;28;20579;-90
2022/03/31 12:24:02;;;;;;;3.70;2.40;;;19.50;44.30;;;;;;5047177;28;20168;-91
2022/03/31 12:26:27;;;;;;;3.70;2.60;;;19.40;44.40;;;;;;5047250;28;20176;-91
2022/03/31 12:28:53;;;;;;;4.43;2.87;;;19.30;44.50;;;;;;5047687;28;20167;-91
2022/03/31 12:31:28;;;;;;;5.83;2.70;;;19.20;44.60;;;;;;5045813;28;20197;-91
2022/03/31 12:33:56;;;;;;;2.97;2.60;;;19.20;44.80;;;;;;5046090;28;20345;-91
2022/03/31 12:36:27;;;;;;;3.37;2.60;;;19.10;44.80;;;;;;5045474;28;20169;-91
2022/03/31 12:38:56;;;;;;;5.43;2.83;;;19.10;45.30;;;;;;5045150;28;20188;-90
2022/03/31 12:41:24;;;;;;;5.50;2.80;;;19.10;45.00;;;;;;5044014;28;20272;-91
2022/03/31 12:44:01;;;;;;;3.07;2.50;;;19.20;45.00;;;;;;5043991;28;20456;-91
2022/03/31 12:46:31;;;;;;;3.07;2.77;;;19.30;45.30;;;;;;5045663;28;20203;-91
2022/03/31 12:49:04;;;;;;;3.07;2.57;;;19.60;44.70;;;;;;5046827;28;20278;-91
2022/03/31 12:51:42;;;;;;;2.40;2.20;;;20.00;44.70;;;;;;5045510;28;20498;-90
2022/03/31 12:54:21;;;;;;;3.07;2.57;;;20.40;43.90;;;;;;5044987;28;20221;-90
2022/03/31 12:56:48;;;;;;;3.60;2.60;;;20.70;43.40;;;;;;5044156;28;20784;-90